Amity, Missouri
Current Conditions -  °F | °C
As of 8:53 AM on Wednesday 26 Nov 2014 (Local Time) from KSTJ Reporting Station
Overcast Overcast  
Wind Chill: -1°   Ceiling: 3000
Heat Index:   Visibility: 10mi
Dew Point:   Wind: 18mph
Humidity: 73%   Direction: 290°WNW
Pressure: 29.95"   Gusts: 26mph
Location:  39.87°N, 94.44°W
Report Text: KSTJ 261453Z 29016G23KT 10SM BKN030 OVC035 04/00 A2995 RMK AO2 SLP146 T00440000 51015
Loading
Personal Weather Stations






























Interactive Weather Map New forecast layout! Learn more

10-Day Weather Forecast

Advertisements
Track Severe Weather on mobile